Terminal Aerodrome Forecast
Issued by NWS

Home | Current Version | Previous Version | Text Only | Print | Product List | Glossary On
Versions: 1 2 3 4 5 6 7 8 9 10 11 12 13
000
FTUS45 KTFX 291100
TAFLWT
TAF
KLWT 291130Z 2912/3012 VRB06KT P6SM SCT250
      TEMPO 2912/2915 6SM BR BKN006
     FM292000 13009KT P6SM SCT060
     FM300800 12005KT P6SM VCSH SCT070 BKN100=

USA.gov is the U.S. government's official web portal to all federal, state and local government web resources and services.